地図

経路データ

SID SEASON NUMBER BASIN SUBBASIN NAME ISO_TIME NATURE LAT LON WMO_WIND WMO_PRES WMO_AGENCY TRACK_TYPE DIST2LAND LANDFALL IFLAG USA_AGENCY USA_ATCF_ID USA_LAT USA_LON USA_RECORD USA_STATUS USA_WIND USA_PRES USA_SSHS USA_R34_NE USA_R34_SE USA_R34_SW USA_R34_NW USA_R50_NE USA_R50_SE USA_R50_SW USA_R50_NW USA_R64_NE USA_R64_SE USA_R64_SW USA_R64_NW USA_POCI USA_ROCI USA_RMW USA_EYE TOKYO_LAT TOKYO_LON TOKYO_GRADE TOKYO_WIND TOKYO_PRES TOKYO_R50_DIR TOKYO_R50_LONG TOKYO_R50_SHORT TOKYO_R30_DIR TOKYO_R30_LONG TOKYO_R30_SHORT TOKYO_LAND CMA_LAT CMA_LON CMA_CAT CMA_WIND CMA_PRES HKO_LAT HKO_LON HKO_CAT HKO_WIND HKO_PRES NEWDELHI_LAT NEWDELHI_LON NEWDELHI_GRADE NEWDELHI_WIND NEWDELHI_PRES NEWDELHI_CI NEWDELHI_DP NEWDELHI_POCI REUNION_LAT REUNION_LON REUNION_TYPE REUNION_WIND REUNION_PRES REUNION_TNUM REUNION_CI REUNION_RMW REUNION_R34_NE REUNION_R34_SE REUNION_R34_SW REUNION_R34_NW REUNION_R50_NE REUNION_R50_SE REUNION_R50_SW REUNION_R50_NW REUNION_R64_NE REUNION_R64_SE REUNION_R64_SW REUNION_R64_NW BOM_LAT BOM_LON BOM_TYPE BOM_WIND BOM_PRES BOM_TNUM BOM_CI BOM_RMW BOM_R34_NE BOM_R34_SE BOM_R34_SW BOM_R34_NW BOM_R50_NE BOM_R50_SE BOM_R50_SW BOM_R50_NW BOM_R64_NE BOM_R64_SE BOM_R64_SW BOM_R64_NW BOM_ROCI BOM_POCI BOM_EYE BOM_POS_METHOD BOM_PRES_METHOD NADI_LAT NADI_LON NADI_CAT NADI_WIND NADI_PRES WELLINGTON_LAT WELLINGTON_LON WELLINGTON_WIND WELLINGTON_PRES DS824_LAT DS824_LON DS824_STAGE DS824_WIND DS824_PRES TD9636_LAT TD9636_LON TD9636_STAGE TD9636_WIND TD9636_PRES TD9635_LAT TD9635_LON TD9635_WIND TD9635_PRES TD9635_ROCI NEUMANN_LAT NEUMANN_LON NEUMANN_CLASS NEUMANN_WIND NEUMANN_PRES MLC_LAT MLC_LON MLC_CLASS MLC_WIND MLC_PRES USA_GUST BOM_GUST BOM_GUST_PER REUNION_GUST REUNION_GUST_PER USA_SEAHGT USA_SEARAD_NE USA_SEARAD_SE USA_SEARAD_SW USA_SEARAD_NW STORM_SPEED STORM_DIR
1895131N11129 1895 9 WP MM NOT_NAMED 1895-05-10 16:00:00 NR 10.5000 129.000 main 339 124 __________O___ -1 10.5000 129.000 7 66 291
1895131N11129 1895 9 WP MM NOT_NAMED 1895-05-10 18:00:00 NR 11.2955 126.922 main 124 0 __________P___ -1 11.2955 126.922 7 64 291
1895131N11129 1895 9 WP MM NOT_NAMED 1895-05-10 21:00:00 NR 12.4092 123.934 main 24 0 __________P___ -1 12.4092 123.934 7 58 291
1895131N11129 1895 9 WP MM NOT_NAMED 1895-05-11 00:00:00 NR 13.3482 121.349 main 0 10 __________P___ -1 13.3482 121.349 7 47 290
1895131N11129 1895 9 WP MM NOT_NAMED 1895-05-11 03:00:00 NR 14.0372 119.440 main 116 108 __________P___ -1 14.0372 119.440 7 37 290
1895131N11129 1895 9 WP MM NOT_NAMED 1895-05-11 04:00:00 NR 14.2000 119.000 main 136 136 __________O___ -1 14.2000 119.000 7 21 292
1895131N11129 1895 9 WP MM NOT_NAMED 1895-05-11 06:00:00 NR 14.4202 118.443 main 188 186 __________P___ -1 14.4202 118.443 7 10 296
1895131N11129 1895 9 WP MM NOT_NAMED 1895-05-11 09:00:00 NR 14.5436 118.257 main 196 164 __________P___ -1 14.5436 118.257 7 2 52
1895131N11129 1895 9 WP MM NOT_NAMED 1895-05-11 12:00:00 NR 14.5112 118.566 main 164 116 __________P___ -1 14.5112 118.566 7 8 99
1895131N11129 1895 9 WP MM NOT_NAMED 1895-05-11 15:00:00 NR 14.4238 119.053 main 116 106 __________P___ -1 14.4238 119.053 7 9 100
1895131N11129 1895 9 WP MM NOT_NAMED 1895-05-11 16:00:00 NR 14.4000 119.200 main 106 106 __________O___ -1 14.4000 119.200 7 3 91
1895131N11129 1895 9 WP MM NOT_NAMED 1895-05-11 18:00:00 NR 14.4202 119.229 main 106 92 __________P___ -1 14.4202 119.229 7 1 59
1895131N11129 1895 9 WP MM NOT_NAMED 1895-05-11 21:00:00 NR 14.4501 119.278 main 92 92 __________P___ -1 14.4501 119.278 7 1 56
1895131N11129 1895 9 WP MM NOT_NAMED 1895-05-12 00:00:00 NR 14.4937 119.347 main 92 68 __________P___ -1 14.4937 119.347 7 2 56
1895131N11129 1895 9 WP MM NOT_NAMED 1895-05-12 03:00:00 NR 14.5665 119.454 main 68 68 __________P___ -1 14.5665 119.454 7 3 54
1895131N11129 1895 9 WP MM NOT_NAMED 1895-05-12 04:00:00 NR 14.6000 119.500 main 68 54 __________O___ -1 14.6000 119.500 7 4 52
1895131N11129 1895 9 WP MM NOT_NAMED 1895-05-12 06:00:00 NR 14.6882 119.616 main 54 32 __________P___ -1 14.6882 119.616 7 5 52
1895131N11129 1895 9 WP MM NOT_NAMED 1895-05-12 09:00:00 NR 14.8519 119.827 main 32 0 __________P___ -1 14.8519 119.827 7 6 51
1895131N11129 1895 9 WP MM NOT_NAMED 1895-05-12 12:00:00 NR 15.0396 120.067 main 0 0 __________P___ -1 15.0396 120.067 7 6 51
1895131N11129 1895 9 WP MM NOT_NAMED 1895-05-12 15:00:00 NR 15.2355 120.318 main 0 0 __________P___ -1 15.2355 120.318 7 6 51
1895131N11129 1895 9 WP MM NOT_NAMED 1895-05-12 16:00:00 NR 15.3000 120.400 main 0 0 __________O___ -1 15.3000 120.400 7 5 53
1895131N11129 1895 9 WP MM NOT_NAMED 1895-05-12 18:00:00 NR 15.3982 120.540 main 0 0 __________P___ -1 15.3982 120.540 7 5 54
1895131N11129 1895 9 WP MM NOT_NAMED 1895-05-12 21:00:00 NR 15.5451 120.749 main 0 0 __________P___ -1 15.5451 120.749 7 5 53
1895131N11129 1895 9 WP MM NOT_NAMED 1895-05-13 00:00:00 NR 15.7111 120.969 main 0 0 __________P___ -1 15.7111 120.969 7 6 50
1895131N11129 1895 9 WP MM NOT_NAMED 1895-05-13 03:00:00 NR 15.9181 121.212 main 0 0 __________P___ -1 15.9181 121.212 7 6 48
1895131N11129 1895 9 WP MM NOT_NAMED 1895-05-13 04:00:00 NR 16.0000 121.300 main 0 0 __________O___ -1 16.0000 121.300 7 8 44
1895131N11129 1895 9 WP MM NOT_NAMED 1895-05-13 06:00:00 NR 16.1987 121.496 main 0 0 __________P___ -1 16.1987 121.496 7 9 43
1895131N11129 1895 9 WP MM NOT_NAMED 1895-05-13 09:00:00 NR 16.5409 121.816 main 0 0 __________P___ -1 16.5409 121.816 7 10 41
1895131N11129 1895 9 WP MM NOT_NAMED 1895-05-13 12:00:00 NR 16.9112 122.152 main 0 0 __________P___ -1 16.9112 122.152 7 10 41
1895131N11129 1895 9 WP MM NOT_NAMED 1895-05-13 15:00:00 NR 17.2814 122.490 main 10 10 __________P___ -1 17.2814 122.490 7 10 41
1895131N11129 1895 9 WP MM NOT_NAMED 1895-05-13 16:00:00 NR 17.4000 122.600 main 24 24 __________O___ -1 17.4000 122.600 7 9 43
1895131N11129 1895 9 WP MM NOT_NAMED 1895-05-13 18:00:00 NR 17.5981 122.804 main 54 54 __________P___ -1 17.5981 122.804 7 8 45
1895131N11129 1895 9 WP MM NOT_NAMED 1895-05-13 21:00:00 NR 17.8825 123.102 main 95 95 __________P___ -1 17.8825 123.102 7 8 45
1895131N11129 1895 9 WP MM NOT_NAMED 1895-05-14 00:00:00 NR 18.1711 123.399 main 116 116 __________P___ -1 18.1711 123.399 7 8 43
1895131N11129 1895 9 WP MM NOT_NAMED 1895-05-14 03:00:00 NR 18.4856 123.698 main 148 148 __________P___ -1 18.4856 123.698 7 9 42
1895131N11129 1895 9 WP MM NOT_NAMED 1895-05-14 04:00:00 NR 18.6000 123.800 main 159 159 __________O___ -1 18.6000 123.800 7 10 39
1895131N11129 1895 9 WP MM NOT_NAMED 1895-05-14 06:00:00 NR 18.8679 124.021 main 187 187 __________P___ -1 18.8679 124.021 7 11 37
1895131N11129 1895 9 WP MM NOT_NAMED 1895-05-14 09:00:00 NR 19.3017 124.359 main 242 242 __________P___ -1 19.3017 124.359 7 11 36
1895131N11129 1895 9 WP MM NOT_NAMED 1895-05-14 12:00:00 NR 19.7458 124.692 main 291 296 __________P___ -1 19.7458 124.692 7 11 35
1895131N11129 1895 9 WP MM NOT_NAMED 1895-05-14 15:00:00 NR 20.1690 125.004 main 347 347 __________P___ -1 20.1690 125.004 7 10 35
1895131N11129 1895 9 WP MM NOT_NAMED 1895-05-14 16:00:00 NR 20.3000 125.100 main 362 362 __________O___ -1 20.3000 125.100 7 8 36
1895131N11129 1895 9 WP MM NOT_NAMED 1895-05-14 18:00:00 NR 20.5073 125.271 main 392 392 __________P___ -1 20.5073 125.271 7 7 38
1895131N11129 1895 9 WP MM NOT_NAMED 1895-05-14 21:00:00 NR 20.7865 125.502 main 429 429 __________P___ -1 20.7865 125.502 7 7 37
1895131N11129 1895 9 WP MM NOT_NAMED 1895-05-15 00:00:00 NR 21.0636 125.715 main 466 466 __________P___ -1 21.0636 125.715 7 7 34
1895131N11129 1895 9 WP MM NOT_NAMED 1895-05-15 03:00:00 NR 21.3792 125.927 main 500 500 __________P___ -1 21.3792 125.927 7 8 31
1895131N11129 1895 9 WP MM NOT_NAMED 1895-05-15 04:00:00 NR 21.5000 126.000 main 505 501 __________O___ -1 21.5000 126.000 7 9 28
1895131N11129 1895 9 WP MM NOT_NAMED 1895-05-15 06:00:00 NR 21.7929 126.166 main 514 510 __________P___ -1 21.7929 126.166 7 11 27
1895131N11129 1895 9 WP MM NOT_NAMED 1895-05-15 09:00:00 NR 22.2829 126.421 main 520 519 __________P___ -1 22.2829 126.421 7 11 25
1895131N11129 1895 9 WP MM NOT_NAMED 1895-05-15 12:00:00 NR 22.8058 126.677 main 524 516 __________P___ -1 22.8058 126.677 7 12 24
1895131N11129 1895 9 WP MM NOT_NAMED 1895-05-15 15:00:00 NR 23.3302 126.922 main 525 522 __________P___ -1 23.3302 126.922 7 11 23
1895131N11129 1895 9 WP MM NOT_NAMED 1895-05-15 16:00:00 NR 23.5000 127.000 main 529 527 __________O___ -1 23.5000 127.000 7 11 23
1895131N11129 1895 9 WP MM NOT_NAMED 1895-05-15 18:00:00 NR 23.8271 127.149 main 533 537 __________P___ -1 23.8271 127.149 7 10 22
1895131N11129 1895 9 WP MM NOT_NAMED 1895-05-15 21:00:00 NR 24.2910 127.356 main 550 547 __________P___ -1 24.2910 127.356 7 10 22
1895131N11129 1895 9 WP MM NOT_NAMED 1895-05-16 00:00:00 NR 24.7316 127.551 main 565 564 __________P___ -1 24.7316 127.551 7 9 22
1895131N11129 1895 9 WP MM NOT_NAMED 1895-05-16 03:00:00 NR 25.1589 127.738 main 573 573 __________P___ -1 25.1589 127.738 7 9 22
1895131N11129 1895 9 WP MM NOT_NAMED 1895-05-16 04:00:00 NR 25.3000 127.800 main 584 __________O___ -1 25.3000 127.800 7 9 23

デジタル台風データ・検索

IBTrACS Databaseについて

本データベースは、米国NOAAが公開する1842年以降の世界の熱帯低気圧のベストトラックデータアーカイブInternational Best Track Archive for Climate Stewardship (IBTrACS)を、ウェブで閲覧しやすい形式に変換したものです。

最終更新日:2021-10-08